< < Back
Terminal Aerodrome Forecast


Current Version              Previous Versions:   1  2  3  4  5  6  7  8  9  

Terminal Aerodrome Forecast

147
FTUS42 KTAE 272340
TAFABY
TAF
KABY 272340Z 2800/2824 09003KT P6SM SCT250
     FM281800 11007KT P6SM FEW045=

Latest METAR

899
SAUS70 KWBC 281000 RRD
MTRABY
METAR KABY 280953Z AUTO 06004KT 10SM CLR 21/19 A3016 RMK AO2 SLP209
T02060189


USA.gov is the U.S. government's official web portal to all federal, state and local government web resources and services.